createdAt,value
2018-09-20T00:00:12.256Z,100475.75
2018-09-20T00:02:41.138Z,100477.50
2018-09-20T00:05:10.011Z,100474.41
2018-09-20T00:07:38.895Z,100472.95
2018-09-20T00:10:07.830Z,100474.33
2018-09-20T00:12:36.659Z,100474.67
2018-09-20T00:15:05.990Z,100474.18
2018-09-20T00:17:34.783Z,100472.87
2018-09-20T00:20:03.656Z,100475.59
2018-09-20T00:22:32.878Z,100476.50
2018-09-20T00:25:03.372Z,100478.72
2018-09-20T00:27:32.378Z,100473.99
2018-09-20T00:30:01.144Z,100478.00
2018-09-20T00:32:29.883Z,100480.50
2018-09-20T00:34:58.759Z,100475.77
2018-09-20T00:37:27.586Z,100477.09
2018-09-20T00:39:56.406Z,100477.70
2018-09-20T00:42:25.143Z,100478.55
2018-09-20T00:44:54.865Z,100481.74
2018-09-20T00:47:23.694Z,100483.16
2018-09-20T00:49:52.582Z,100476.42
2018-09-20T00:52:21.439Z,100476.50
2018-09-20T00:54:50.699Z,100478.88
2018-09-20T00:57:19.484Z,100485.81
2018-09-20T00:59:48.359Z,100485.22
2018-09-20T01:02:17.126Z,100485.65
2018-09-20T01:04:46.105Z,100484.58
2018-09-20T01:07:15.050Z,100480.67
2018-09-20T01:09:44.378Z,100487.28
2018-09-20T01:12:13.280Z,100485.88
2018-09-20T01:14:42.025Z,100488.33
2018-09-20T01:17:11.031Z,100494.11
2018-09-20T01:19:39.848Z,100489.31
2018-09-20T01:22:09.090Z,100489.73
2018-09-20T01:24:37.939Z,100497.36
2018-09-20T01:27:06.898Z,100496.70
2018-09-20T01:29:37.747Z,100499.59
2018-09-20T01:32:06.659Z,100494.73
2018-09-20T01:34:35.831Z,100501.13
2018-09-20T01:37:04.579Z,100503.14
2018-09-20T01:39:33.536Z,100505.47
2018-09-20T01:42:02.788Z,100506.98
2018-09-20T01:44:32.171Z,100510.51
2018-09-20T01:47:01.066Z,100507.52
2018-09-20T01:49:30.108Z,100511.36
2018-09-20T01:51:59.011Z,100515.23
2018-09-20T01:54:27.941Z,100519.27
2018-09-20T01:56:56.830Z,100520.25
2018-09-20T01:59:25.721Z,100519.09
2018-09-20T02:01:54.598Z,100525.27
2018-09-20T02:04:23.455Z,100527.80
2018-09-20T02:06:52.411Z,100528.64
2018-09-20T02:09:21.263Z,100525.66
2018-09-20T02:11:50.308Z,100522.30
2018-09-20T02:14:19.266Z,100519.29
2018-09-20T02:16:48.158Z,100518.97
2018-09-20T02:19:17.060Z,100522.31
2018-09-20T02:21:45.923Z,100519.62
2018-09-20T02:24:14.904Z,100515.61
2018-09-20T02:26:43.840Z,100521.97
2018-09-20T02:29:13.542Z,100517.78
2018-09-20T02:31:42.387Z,100525.48
2018-09-20T02:34:11.340Z,100522.12
2018-09-20T02:36:40.247Z,100514.71
2018-09-20T02:39:09.638Z,100522.55
2018-09-20T02:41:39.019Z,100523.89
2018-09-20T02:44:07.840Z,100524.23
2018-09-20T02:46:36.732Z,100527.89
2018-09-20T02:49:05.644Z,100532.23
2018-09-20T02:51:34.613Z,100533.91
2018-09-20T02:54:03.403Z,100544.95
2018-09-20T02:56:32.241Z,100543.39
2018-09-20T02:59:02.297Z,100547.41
2018-09-20T03:01:31.498Z,100546.23
2018-09-20T03:04:00.335Z,100547.24
2018-09-20T03:06:29.259Z,100544.08
2018-09-20T03:08:58.209Z,100549.22
2018-09-20T03:11:27.096Z,100558.41
2018-09-20T03:13:55.971Z,100568.97
2018-09-20T03:16:24.903Z,100564.67
2018-09-20T03:18:53.722Z,100570.16
2018-09-20T03:21:22.574Z,100568.87
2018-09-20T03:23:51.796Z,100565.87
2018-09-20T03:26:21.130Z,100557.83
2018-09-20T03:28:50.106Z,100555.12
2018-09-20T03:31:19.140Z,100554.77
2018-09-20T03:33:48.256Z,100560.56
2018-09-20T03:36:17.296Z,100549.05
2018-09-20T03:38:46.204Z,100554.08
2018-09-20T03:41:15.063Z,100552.45
2018-09-20T03:43:43.872Z,100554.14
2018-09-20T03:46:12.829Z,100547.45
2018-09-20T03:48:41.652Z,100557.14
2018-09-20T03:51:10.531Z,100546.11
2018-09-20T03:53:39.261Z,100542.78
2018-09-20T03:56:08.195Z,100541.75
2018-09-20T03:58:37.212Z,100547.39
2018-09-20T04:01:06.245Z,100543.02
2018-09-20T04:03:35.147Z,100551.38
2018-09-20T04:06:04.020Z,100556.20
2018-09-20T04:08:41.139Z,100552.97
2018-09-20T04:11:10.095Z,100547.95
2018-09-20T04:13:38.918Z,100552.05
2018-09-20T04:16:08.463Z,100557.14
2018-09-20T04:18:37.338Z,100555.16
2018-09-20T04:21:06.345Z,100547.95
2018-09-20T04:23:35.340Z,100536.81
2018-09-20T04:26:04.208Z,100537.14
2018-09-20T04:28:33.089Z,100537.30
2018-09-20T04:31:01.921Z,100536.45
2018-09-20T04:33:30.851Z,100540.27
2018-09-20T04:35:59.635Z,100542.08
2018-09-20T04:38:28.616Z,100546.38
2018-09-20T04:40:57.886Z,100544.39
2018-09-20T04:43:26.829Z,100551.39
2018-09-20T04:45:55.744Z,100553.58
2018-09-20T04:48:25.317Z,100553.58
2018-09-20T04:50:54.241Z,100557.59
2018-09-20T04:53:23.208Z,100558.28
2018-09-20T04:55:52.189Z,100566.50
2018-09-20T04:58:44.511Z,100572.86
2018-09-20T05:01:13.396Z,100578.05
2018-09-20T05:03:42.833Z,100573.59
2018-09-20T05:06:11.930Z,100579.53
2018-09-20T05:08:40.904Z,100578.05
2018-09-20T05:11:09.631Z,100577.66
2018-09-20T05:13:38.512Z,100582.58
2018-09-20T05:16:07.667Z,100575.43
2018-09-20T05:18:36.470Z,100574.33
2018-09-20T05:21:05.481Z,100568.72
2018-09-20T05:23:34.445Z,100576.92
2018-09-20T05:26:03.306Z,100577.13
2018-09-20T05:28:32.238Z,100577.56
2018-09-20T05:31:01.055Z,100582.27
2018-09-20T05:33:29.977Z,100573.72
2018-09-20T05:35:59.357Z,100563.24
2018-09-20T05:38:28.216Z,100565.26
2018-09-20T05:40:57.194Z,100573.98
2018-09-20T05:43:26.128Z,100577.72
2018-09-20T05:45:55.407Z,100580.20
2018-09-20T05:48:25.559Z,100577.50
2018-09-20T05:50:54.388Z,100571.46
2018-09-20T05:53:23.186Z,100572.59
2018-09-20T05:55:52.067Z,100566.37
2018-09-20T05:58:21.570Z,100564.41
2018-09-20T06:00:50.508Z,100562.67
2018-09-20T06:03:19.322Z,100558.09
2018-09-20T06:05:48.164Z,100567.00
2018-09-20T06:08:17.063Z,100564.58
2018-09-20T06:10:45.886Z,100567.72
2018-09-20T06:13:14.881Z,100566.30
2018-09-20T06:15:43.790Z,100570.02
2018-09-20T06:18:12.696Z,100575.72
2018-09-20T06:20:41.620Z,100574.26
2018-09-20T06:23:10.631Z,100579.18
2018-09-20T06:25:39.629Z,100582.77
2018-09-20T06:28:08.420Z,100577.50
2018-09-20T06:30:37.379Z,100574.32
2018-09-20T06:33:43.167Z,100573.16
2018-09-20T06:36:12.052Z,100571.25
2018-09-20T06:38:40.826Z,100558.24
2018-09-20T06:41:09.702Z,100563.98
2018-09-20T06:43:38.441Z,100557.14
2018-09-20T06:46:07.325Z,100563.63
2018-09-20T06:51:27.492Z,100574.66
2018-09-20T06:53:56.922Z,100578.34
2018-09-20T06:56:26.219Z,100573.08
2018-09-20T06:58:54.945Z,100575.88
2018-09-20T07:01:23.653Z,100577.38
2018-09-20T07:03:53.896Z,100585.23
2018-09-20T07:06:22.914Z,100570.80
2018-09-20T07:08:51.953Z,100564.92
2018-09-20T07:11:21.533Z,100570.83
2018-09-20T07:13:50.977Z,100551.05
2018-09-20T07:16:20.193Z,100554.31
2018-09-20T07:18:49.279Z,100555.66
2018-09-20T07:21:18.115Z,100562.22
2018-09-20T07:23:47.177Z,100555.77
2018-09-20T07:26:17.062Z,100554.81
2018-09-20T07:28:46.199Z,100555.81
2018-09-20T07:31:15.135Z,100556.33
2018-09-20T07:33:44.061Z,100555.70
2018-09-20T07:36:13.096Z,100548.96
2018-09-20T07:38:42.052Z,100554.84
2018-09-20T07:41:11.161Z,100551.53
2018-09-20T07:43:40.254Z,100559.81
2018-09-20T07:46:09.164Z,100567.33
2018-09-20T07:48:38.040Z,100554.49
2018-09-20T07:51:07.085Z,100561.80
2018-09-20T07:53:36.639Z,100557.62
2018-09-20T07:56:05.623Z,100554.68
2018-09-20T07:58:35.213Z,100552.55
2018-09-20T08:01:05.793Z,100556.42
2018-09-20T08:03:35.140Z,100549.12
2018-09-20T08:06:09.872Z,100540.35
2018-09-20T08:08:39.659Z,100545.03
2018-09-20T08:11:10.902Z,100539.44
2018-09-20T08:13:40.110Z,100543.02
2018-09-20T08:16:11.919Z,100540.89
2018-09-20T08:18:41.557Z,100537.91
2018-09-20T08:21:11.362Z,100532.37
2018-09-20T08:23:40.647Z,100539.97
2018-09-20T08:26:10.615Z,100534.46
2018-09-20T08:28:39.527Z,100530.50
2018-09-20T08:31:08.644Z,100527.52
2018-09-20T08:33:37.792Z,100528.34
2018-09-20T08:36:10.197Z,100525.78
2018-09-20T08:38:39.532Z,100526.70
2018-09-20T08:41:11.981Z,100529.28
2018-09-20T08:43:42.382Z,100524.05
2018-09-20T08:46:11.913Z,100525.13
2018-09-20T08:48:40.946Z,100519.27
2018-09-20T08:51:10.172Z,100514.24
2018-09-20T08:53:38.948Z,100519.76
2018-09-20T08:56:08.003Z,100518.71
2018-09-20T08:58:36.930Z,100511.53
2018-09-20T09:01:06.387Z,100512.25
2018-09-20T09:03:35.312Z,100509.20
2018-09-20T09:06:04.648Z,100506.21
2018-09-20T09:08:34.165Z,100497.17
2018-09-20T09:11:03.311Z,100500.14
2018-09-20T09:13:32.149Z,100494.39
2018-09-20T09:16:01.068Z,100494.92
2018-09-20T09:18:30.159Z,100495.91
2018-09-20T09:20:59.057Z,100487.81
2018-09-20T09:23:29.019Z,100492.41
2018-09-20T09:25:58.035Z,100489.19
2018-09-20T09:28:28.568Z,100484.83
2018-09-20T09:30:58.317Z,100481.25
2018-09-20T09:33:29.142Z,100483.98
2018-09-20T09:35:58.229Z,100475.43
2018-09-20T09:38:27.955Z,100476.88
2018-09-20T09:40:56.843Z,100473.98
2018-09-20T09:43:26.098Z,100475.59
2018-09-20T09:45:56.133Z,100471.63
2018-09-20T09:48:26.066Z,100467.52
2018-09-20T09:50:55.053Z,100466.00
2018-09-20T09:53:24.410Z,100456.53
2018-09-20T09:55:53.367Z,100453.50
2018-09-20T09:58:22.487Z,100456.35
2018-09-20T10:00:51.439Z,100451.42
2018-09-20T10:03:20.339Z,100445.15
2018-09-20T10:05:50.296Z,100432.28
2018-09-20T10:08:19.818Z,100434.72
2018-09-20T10:10:48.828Z,100428.42
2018-09-20T10:13:17.929Z,100430.63
2018-09-20T10:15:47.153Z,100423.20
2018-09-20T10:18:16.067Z,100419.36
2018-09-20T10:20:45.157Z,100412.47
2018-09-20T10:23:15.522Z,100420.13
2018-09-20T10:25:44.542Z,100409.47
2018-09-20T10:28:16.081Z,100407.93
2018-09-20T10:30:47.982Z,100403.94
2018-09-20T10:33:19.171Z,100406.31
2018-09-20T10:35:48.259Z,100408.41
2018-09-20T10:38:17.418Z,100392.52
2018-09-20T10:40:47.799Z,100397.88
2018-09-20T10:43:16.772Z,100398.45
2018-09-20T10:45:45.967Z,100386.63
2018-09-20T10:48:14.920Z,100386.36
2018-09-20T10:50:43.926Z,100381.16
2018-09-20T10:53:13.085Z,100373.45
2018-09-20T10:55:42.036Z,100374.59
2018-09-20T10:58:11.131Z,100367.67
2018-09-20T11:00:40.175Z,100362.81
2018-09-20T11:03:09.322Z,100357.22
2018-09-20T11:05:38.140Z,100353.21
2018-09-20T11:08:07.961Z,100346.97
2018-09-20T11:10:36.832Z,100343.20
2018-09-20T11:13:06.058Z,100343.25
2018-09-20T11:15:35.047Z,100338.25
2018-09-20T11:18:04.005Z,100334.61
2018-09-20T11:20:33.480Z,100339.06
2018-09-20T11:23:03.928Z,100337.21
2018-09-20T11:25:32.858Z,100330.78
2018-09-20T11:28:01.700Z,100323.12
2018-09-20T11:30:30.673Z,100326.09
2018-09-20T11:32:59.527Z,100319.04
2018-09-20T11:35:28.411Z,100323.02
2018-09-20T11:37:57.998Z,100318.09
2018-09-20T11:40:27.154Z,100314.49
2018-09-20T11:42:56.127Z,100311.87
2018-09-20T11:45:25.141Z,100297.86
2018-09-20T11:47:53.989Z,100298.55
2018-09-20T11:50:22.820Z,100309.82
2018-09-20T11:52:51.755Z,100312.59
2018-09-20T11:55:20.919Z,100297.98
2018-09-20T11:57:51.438Z,100296.91
2018-09-20T12:00:22.011Z,100298.40
2018-09-20T12:02:52.719Z,100299.83
2018-09-20T12:05:22.428Z,100292.86
2018-09-20T12:07:51.445Z,100292.96
2018-09-20T12:10:20.740Z,100284.52
2018-09-20T12:12:49.702Z,100287.95
2018-09-20T12:15:18.635Z,100279.33
2018-09-20T12:17:47.466Z,100284.36
2018-09-20T12:20:16.522Z,100279.47
2018-09-20T12:22:45.455Z,100276.88
2018-09-20T12:25:14.220Z,100269.76
2018-09-20T12:27:45.069Z,100263.20
2018-09-20T12:30:14.909Z,100255.75
2018-09-20T12:32:47.356Z,100247.05
2018-09-20T12:35:16.405Z,100248.62
2018-09-20T12:37:45.646Z,100240.17
2018-09-20T12:40:14.718Z,100242.23
2018-09-20T12:42:45.794Z,100243.95
2018-09-20T12:45:14.692Z,100236.86
2018-09-20T12:47:43.552Z,100230.29
2018-09-20T12:50:13.147Z,100235.11
2018-09-20T12:52:41.965Z,100221.88
2018-09-20T12:55:11.015Z,100216.22
2018-09-20T12:57:43.601Z,100214.53
2018-09-20T13:00:12.801Z,100204.72
2018-09-20T13:02:41.684Z,100210.30
2018-09-20T13:05:10.664Z,100208.84
2018-09-20T13:07:39.520Z,100193.19
2018-09-20T13:10:08.417Z,100211.06
2018-09-20T13:12:37.461Z,100199.36
2018-09-20T13:15:10.406Z,100196.87
2018-09-20T13:17:39.417Z,100203.46
2018-09-20T13:20:12.519Z,100193.32
2018-09-20T13:22:42.532Z,100183.16
2018-09-20T13:25:12.526Z,100180.91
2018-09-20T13:27:41.863Z,100182.84
2018-09-20T13:30:11.011Z,100172.82
2018-09-20T13:32:40.140Z,100189.63
2018-09-20T13:35:09.138Z,100173.27
2018-09-20T13:37:38.108Z,100174.38
2018-09-20T13:40:07.262Z,100167.23
2018-09-20T13:42:36.342Z,100173.48
2018-09-20T13:45:05.500Z,100184.87
2018-09-20T13:47:36.120Z,100176.34
2018-09-20T13:50:05.820Z,100173.22
2018-09-20T13:52:35.407Z,100173.53
2018-09-20T13:55:04.400Z,100158.73
2018-09-20T13:57:33.345Z,100149.92
2018-09-20T14:00:02.475Z,100155.99
2018-09-20T14:02:31.311Z,100158.15
2018-09-20T14:05:00.709Z,100154.02
2018-09-20T14:07:29.632Z,100159.19
2018-09-20T14:09:59.665Z,100150.47
2018-09-20T14:12:28.766Z,100144.99
2018-09-20T14:14:58.311Z,100153.77
2018-09-20T14:17:27.491Z,100144.32
2018-09-20T14:19:56.282Z,100146.20
2018-09-20T14:22:25.211Z,100149.52
2018-09-20T14:24:54.261Z,100145.67
2018-09-20T14:27:23.340Z,100137.53
2018-09-20T14:30:08.718Z,100145.43
2018-09-20T14:32:46.323Z,100140.61
2018-09-20T14:35:15.311Z,100140.80
2018-09-20T14:37:44.536Z,100142.66
2018-09-20T14:40:13.417Z,100147.38
2018-09-20T14:42:42.223Z,100131.88
2018-09-20T14:45:11.200Z,100139.30
2018-09-20T14:47:40.187Z,100148.62
2018-09-20T14:50:09.049Z,100134.34
2018-09-20T14:52:38.140Z,100139.63
2018-09-20T14:55:07.286Z,100138.33
2018-09-20T14:57:36.589Z,100139.84
2018-09-20T15:00:05.661Z,100131.92
2018-09-20T15:02:34.827Z,100128.63
2018-09-20T15:05:03.841Z,100118.14
2018-09-20T15:07:32.702Z,100134.27
2018-09-20T15:10:01.596Z,100131.93
2018-09-20T15:12:31.183Z,100136.30
2018-09-20T15:15:00.785Z,100140.38
2018-09-20T15:17:29.908Z,100126.08
2018-09-20T15:19:59.418Z,100135.63
2018-09-20T15:22:29.375Z,100128.06
2018-09-20T15:24:58.482Z,100131.75
2018-09-20T15:27:28.906Z,100124.43
2018-09-20T15:29:57.847Z,100133.08
2018-09-20T15:32:26.891Z,100126.41
2018-09-20T15:34:57.013Z,100125.05
2018-09-20T15:37:25.853Z,100122.10
2018-09-20T15:39:54.905Z,100120.02
2018-09-20T15:42:23.830Z,100123.41
2018-09-20T15:44:53.983Z,100118.57
2018-09-20T15:47:25.634Z,100118.56
2018-09-20T15:49:54.661Z,100117.65
2018-09-20T15:52:24.034Z,100120.06
2018-09-20T15:54:53.104Z,100123.32
2018-09-20T15:57:22.173Z,100115.82
2018-09-20T15:59:51.535Z,100113.58
2018-09-20T16:02:20.479Z,100120.41
2018-09-20T16:04:49.545Z,100105.37
2018-09-20T16:07:18.608Z,100109.24
2018-09-20T16:09:47.975Z,100113.50
2018-09-20T16:12:17.334Z,100112.27
2018-09-20T16:14:47.155Z,100111.44
2018-09-20T16:17:15.963Z,100112.02
2018-09-20T16:19:44.903Z,100108.91
2018-09-20T16:22:13.858Z,100112.47
2018-09-20T16:24:42.823Z,100105.70
2018-09-20T16:27:11.959Z,100098.30
2018-09-20T16:29:44.168Z,100095.14
2018-09-20T16:34:56.255Z,100093.00
2018-09-20T16:39:34.983Z,100089.69
2018-09-20T16:42:05.467Z,100094.61
2018-09-20T16:44:34.326Z,100093.61
2018-09-20T16:47:03.266Z,100098.05
2018-09-20T16:49:32.322Z,100094.30
2018-09-20T16:52:01.167Z,100091.13
2018-09-20T16:54:30.113Z,100086.27
2018-09-20T16:56:58.944Z,100091.03
2018-09-20T16:59:28.230Z,100087.19
2018-09-20T17:01:57.457Z,100088.66
2018-09-20T17:04:30.990Z,100086.51
2018-09-20T17:07:00.134Z,100088.71
2018-09-20T17:09:29.531Z,100093.98
2018-09-20T17:11:58.490Z,100099.72
2018-09-20T17:14:27.544Z,100099.44
2018-09-20T17:16:56.877Z,100101.54
2018-09-20T17:19:26.838Z,100102.86
2018-09-20T17:21:56.461Z,100101.48
2018-09-20T17:24:25.741Z,100104.19
2018-09-20T17:26:55.666Z,100100.84
2018-09-20T17:29:25.125Z,100109.72
2018-09-20T17:31:54.571Z,100106.44
2018-09-20T17:34:25.912Z,100106.64
2018-09-20T17:36:56.357Z,100106.20
2018-09-20T17:39:27.262Z,100104.87
2018-09-20T17:41:57.579Z,100108.94
2018-09-20T17:44:26.590Z,100106.25
2018-09-20T17:46:58.056Z,100106.06
2018-09-20T17:49:27.246Z,100103.70
2018-09-20T17:51:56.496Z,100104.66
2018-09-20T17:54:25.830Z,100098.93
2018-09-20T17:56:55.564Z,100097.55
2018-09-20T17:59:24.448Z,100101.29
2018-09-20T18:01:53.530Z,100102.73
2018-09-20T18:04:22.553Z,100097.28
2018-09-20T18:06:52.373Z,100105.07
2018-09-20T18:09:21.874Z,100109.30
2018-09-20T18:11:52.920Z,100107.80
2018-09-20T18:14:23.303Z,100105.48
2018-09-20T18:16:53.843Z,100106.80
2018-09-20T18:19:23.066Z,100108.80
2018-09-20T18:21:57.784Z,100112.16
2018-09-20T18:24:26.957Z,100115.13
2018-09-20T18:26:56.164Z,100111.31
2018-09-20T18:29:25.274Z,100110.73
2018-09-20T18:31:55.249Z,100106.08
2018-09-20T18:34:24.465Z,100112.53
2018-09-20T18:36:55.442Z,100105.88
2018-09-20T18:39:25.522Z,100108.81
2018-09-20T18:41:56.474Z,100110.17
2018-09-20T18:44:26.953Z,100112.75
2018-09-20T18:46:56.537Z,100106.64
2018-09-20T18:49:25.878Z,100111.94
2018-09-20T18:51:56.044Z,100104.14
2018-09-20T18:54:25.087Z,100116.23
2018-09-20T18:56:54.178Z,100114.65
2018-09-20T18:59:27.459Z,100115.09
2018-09-20T19:01:56.839Z,100127.16
2018-09-20T19:04:25.912Z,100121.46
2018-09-20T19:06:55.868Z,100122.45
2018-09-20T19:09:25.011Z,100117.55
2018-09-20T19:11:54.110Z,100119.06
2018-09-20T19:14:23.061Z,100110.26
2018-09-20T19:16:52.045Z,100107.78
2018-09-20T19:19:21.159Z,100111.83
2018-09-20T19:21:54.366Z,100113.19
2018-09-20T19:24:25.584Z,100112.59
2018-09-20T19:26:55.280Z,100105.50
2018-09-20T19:29:24.975Z,100104.02
2018-09-20T19:31:55.894Z,100098.63
2018-09-20T19:34:27.552Z,100096.28
2018-09-20T19:39:50.215Z,100097.66
2018-09-20T19:42:19.152Z,100102.50
2018-09-20T19:44:49.751Z,100093.63
2018-09-20T19:47:20.864Z,100093.80
2018-09-20T19:49:50.424Z,100094.54
2018-09-20T19:52:19.523Z,100095.88
2018-09-20T19:54:48.763Z,100091.11
2018-09-20T19:57:18.005Z,100095.71
2018-09-20T19:59:47.114Z,100092.78
2018-09-20T20:02:16.283Z,100098.33
2018-09-20T20:04:45.713Z,100096.67
2018-09-20T20:07:15.532Z,100093.01
2018-09-20T20:09:44.624Z,100090.66
2018-09-20T20:12:14.731Z,100091.55
2018-09-20T20:14:46.193Z,100084.78
2018-09-20T20:17:17.071Z,100090.02
2018-09-20T20:19:46.712Z,100083.66
2018-09-20T20:22:18.661Z,100080.02
2018-09-20T20:24:48.008Z,100077.34
2018-09-20T20:27:17.049Z,100074.70
2018-09-20T20:29:46.162Z,100086.01
2018-09-20T20:32:15.361Z,100074.06
2018-09-20T20:34:46.589Z,100069.50
2018-09-20T20:37:15.719Z,100075.36
2018-09-20T20:39:46.274Z,100072.50
2018-09-20T20:42:16.083Z,100071.09
2018-09-20T20:44:45.673Z,100075.08
2018-09-20T20:47:14.878Z,100076.28
2018-09-20T20:49:44.135Z,100079.41
2018-09-20T20:52:13.548Z,100083.38
2018-09-20T20:54:42.922Z,100084.47
2018-09-20T20:57:12.250Z,100078.48
2018-09-20T20:59:41.291Z,100079.72
2018-09-20T21:02:11.011Z,100079.38
2018-09-20T21:04:40.932Z,100077.78
2018-09-20T21:07:10.068Z,100068.81
2018-09-20T21:09:39.247Z,100076.34
2018-09-20T21:12:08.155Z,100067.41
2018-09-20T21:14:39.946Z,100065.24
2018-09-20T21:17:12.123Z,100067.39
2018-09-20T21:19:41.696Z,100072.52
2018-09-20T21:22:10.846Z,100064.99
2018-09-20T21:24:40.816Z,100063.38
2018-09-20T21:27:10.610Z,100061.76
2018-09-20T21:29:42.067Z,100055.09
2018-09-20T21:32:11.305Z,100058.92
2018-09-20T21:34:40.989Z,100062.63
2018-09-20T21:37:10.796Z,100057.32
2018-09-20T21:39:40.442Z,100057.77
2018-09-20T21:42:14.222Z,100056.77
2018-09-20T21:44:44.058Z,100058.02
2018-09-20T21:47:13.387Z,100054.33
2018-09-20T21:49:42.438Z,100052.30
2018-09-20T21:52:12.173Z,100050.34
2018-09-20T21:54:43.178Z,100050.81
2018-09-20T21:57:13.068Z,100047.56
2018-09-20T21:59:43.845Z,100049.71
2018-09-20T22:02:14.522Z,100045.14
2018-09-20T22:04:43.499Z,100038.66
2018-09-20T22:07:12.400Z,100034.52
2018-09-20T22:09:41.385Z,100036.02
2018-09-20T22:12:11.059Z,100033.80
2018-09-20T22:14:41.434Z,100033.80
2018-09-20T22:17:10.507Z,100023.63
2018-09-20T22:19:39.368Z,100028.57
2018-09-20T22:22:08.346Z,100027.04
2018-09-20T22:24:37.328Z,100021.86
2018-09-20T22:27:06.182Z,100027.50
2018-09-20T22:29:35.051Z,100025.85
2018-09-20T22:32:03.940Z,100017.00
2018-09-20T22:34:32.850Z,100008.72
2018-09-20T22:37:01.779Z,100009.10
2018-09-20T22:39:30.893Z,100007.08
2018-09-20T22:41:59.807Z,100000.33
2018-09-20T22:44:28.651Z,100002.47
2018-09-20T22:46:57.709Z,100000.32
2018-09-20T22:49:26.665Z,99991.39
2018-09-20T22:51:55.721Z,99992.05
2018-09-20T22:54:24.680Z,99988.56
2018-09-20T22:56:53.675Z,99985.42
2018-09-20T22:59:22.640Z,99985.95
2018-09-20T23:01:52.046Z,99989.02
2018-09-20T23:04:21.379Z,99982.50
2018-09-20T23:06:51.653Z,99983.53
2018-09-20T23:09:20.939Z,99984.40
2018-09-20T23:11:50.527Z,99984.40
2018-09-20T23:14:19.313Z,99974.09
2018-09-20T23:16:49.100Z,99974.40
2018-09-20T23:19:18.413Z,99974.83
2018-09-20T23:21:48.427Z,99972.58
2018-09-20T23:24:18.181Z,99970.97
2018-09-20T23:26:47.210Z,99967.37
2018-09-20T23:29:22.051Z,99963.80
2018-09-20T23:31:51.526Z,99960.08
2018-09-20T23:34:21.386Z,99962.58
2018-09-20T23:36:50.692Z,99965.11
2018-09-20T23:39:20.176Z,99965.38
2018-09-20T23:41:49.870Z,99963.31
2018-09-20T23:44:19.271Z,99959.47
2018-09-20T23:46:49.821Z,99955.95
2018-09-20T23:49:19.335Z,99952.50
2018-09-20T23:51:49.245Z,99946.59
2018-09-20T23:54:18.107Z,99954.27
2018-09-20T23:56:47.625Z,99943.49
2018-09-20T23:59:17.822Z,99945.40
